Time;durP1;ratioP1;P1;durP2;ratioP2;P2;SDS_P1;SDS_P2;PMS_P1;PMS_P2;Temp;Humidity;BMP_temperature;BMP_pressure;BME280_temperature;BME280_humidity;BME280_pressure;Samples;Min_cycle;Max_cycle;Signal;HPM_P1;HPM_P2
2021/08/02 00:00:45;;;;;;;6.78;1.85;;;;;;;16.17;99.58;100261.63;5078016;28;20032;-74
2021/08/02 00:03:18;;;;;;;5.95;2.00;;;;;;;16.16;100.00;100263.56;5053014;28;20036;-75
2021/08/02 00:05:45;;;;;;;6.40;2.00;;;;;;;16.19;99.74;100267.44;5064934;28;20036;-75
2021/08/02 00:08:18;;;;;;;3.63;1.73;;;;;;;15.93;100.00;100263.38;5084188;28;20040;-74
2021/08/02 00:10:45;;;;;;;3.20;1.52;;;;;;;15.91;100.00;100265.72;5085526;28;20040;-76
2021/08/02 00:13:21;;;;;;;4.57;1.90;;;;;;;15.91;100.00;100273.88;5069595;28;20492;-75
2021/08/02 00:15:47;;;;;;;5.95;1.83;;;;;;;15.82;100.00;100265.41;5062416;28;20032;-75
2021/08/02 00:18:13;;;;;;;9.52;2.58;;;;;;;15.81;100.00;100269.31;5084264;28;20031;-75
2021/08/02 00:20:39;;;;;;;4.57;1.73;;;;;;;15.80;100.00;100267.75;5062339;28;20405;-75
2021/08/02 00:23:08;;;;;;;7.18;1.92;;;;;;;15.82;100.00;100262.69;5079043;28;20028;-75
2021/08/02 00:25:34;;;;;;;4.50;1.75;;;;;;;15.85;100.00;100267.31;5065677;28;20016;-74
2021/08/02 00:28:02;;;;;;;6.78;1.80;;;;;;;15.81;100.00;100263.09;5056602;28;20076;-75
2021/08/02 00:30:31;;;;;;;6.22;1.60;;;;;;;15.83;100.00;100266.94;5076107;28;20032;-75
2021/08/02 00:32:57;;;;;;;4.25;1.75;;;;;;;15.89;100.00;100259.91;5072568;28;20119;-74
2021/08/02 00:35:22;;;;;;;5.88;1.75;;;;;;;15.90;100.00;100266.13;5052360;28;20111;-74
2021/08/02 00:38:03;;;;;;;5.28;1.90;;;;;;;16.03;100.00;100264.47;5071396;28;20032;-74
2021/08/02 00:40:46;;;;;;;5.10;2.20;;;;;;;16.05;100.00;100268.31;5054258;28;20032;-74
2021/08/02 00:43:41;;;;;;;5.22;1.88;;;;;;;16.04;100.00;100268.72;5074644;28;20032;-74
2021/08/02 00:46:09;;;;;;;10.05;2.53;;;;;;;16.08;100.00;100264.81;5073071;28;20404;-74
2021/08/02 00:48:46;;;;;;;4.55;1.73;;;;;;;16.08;100.00;100266.75;5054825;28;20033;-74
2021/08/02 00:51:12;;;;;;;3.58;1.65;;;;;;;16.28;100.00;100267.72;5074692;28;20036;-73
2021/08/02 00:53:38;;;;;;;5.38;2.00;;;;;;;16.19;100.00;100270.94;5055239;28;20060;-74
2021/08/02 00:56:04;;;;;;;2.75;1.80;;;;;;;16.21;100.00;100265.88;5055902;28;20039;-74
2021/08/02 00:58:32;;;;;;;2.35;1.63;;;;;;;16.24;100.00;100269.72;5056437;28;20442;-74
2021/08/02 01:01:01;;;;;;;4.32;1.90;;;;;;;16.25;100.00;100265.84;5041468;28;20063;-74
2021/08/02 01:03:29;;;;;;;5.40;1.95;;;;;;;16.28;100.00;100271.22;5052177;28;20120;-74
2021/08/02 01:05:58;;;;;;;2.90;1.63;;;;;;;16.32;100.00;100270.44;5070038;28;20508;-74
2021/08/02 01:08:28;;;;;;;4.00;1.77;;;;;;;16.36;100.00;100266.50;5051769;28;20056;-74
2021/08/02 01:11:02;;;;;;;4.95;1.63;;;;;;;16.39;100.00;100263.00;5054789;28;20107;-74
2021/08/02 01:13:34;;;;;;;3.78;1.52;;;;;;;16.40;100.00;100266.47;5066002;28;20032;-74
2021/08/02 01:16:03;;;;;;;6.10;1.58;;;;;;;16.44;100.00;100272.63;5071633;28;20479;-74
2021/08/02 01:18:32;;;;;;;4.22;1.65;;;;;;;16.42;100.00;100261.38;5074485;28;20103;-74
2021/08/02 01:21:02;;;;;;;3.42;1.50;;;;;;;16.46;100.00;100268.34;5070096;28;20114;-73
2021/08/02 01:23:30;;;;;;;4.70;1.50;;;;;;;16.44;100.00;100267.19;5054233;28;20064;-74
2021/08/02 01:25:56;;;;;;;3.63;1.50;;;;;;;16.45;100.00;100271.47;5054596;28;20040;-74
2021/08/02 01:28:23;;;;;;;6.32;1.60;;;;;;;16.47;100.00;100271.84;5070743;28;20028;-74
2021/08/02 01:30:55;;;;;;;5.95;1.40;;;;;;;16.38;100.00;100263.38;5036976;28;20089;-74
2021/08/02 01:33:29;;;;;;;5.97;1.52;;;;;;;16.43;100.00;100271.09;5064323;28;20036;-74
2021/08/02 01:36:04;;;;;;;5.15;1.38;;;;;;;16.40;100.00;100271.88;5051611;28;20551;-74
2021/08/02 01:38:30;;;;;;;;;;;;;;;16.20;100.00;100274.44;5078112;28;20123;-74
2021/08/02 01:40:57;;;;;;;3.42;1.13;;;;;;;16.22;100.00;100272.84;5053712;28;19912;-74
2021/08/02 01:43:23;;;;;;;4.90;1.40;;;;;;;16.22;100.00;100275.56;5056805;28;20115;-74
2021/08/02 01:46:02;;;;;;;3.72;1.80;;;;;;;16.28;100.00;100273.16;5069671;28;20103;-74
2021/08/02 01:48:44;;;;;;;4.95;1.52;;;;;;;16.16;100.00;100282.59;5065985;28;20116;-74
2021/08/02 01:51:16;;;;;;;2.97;1.30;;;;;;;16.38;100.00;100276.97;5050643;28;20036;-74
2021/08/02 01:53:50;;;;;;;4.63;1.17;;;;;;;16.48;99.94;100276.09;5071034;28;20041;-74
2021/08/02 01:56:22;;;;;;;4.32;1.40;;;;;;;16.47;100.00;100280.78;5037815;28;20384;-74
2021/08/02 01:59:04;;;;;;;5.43;1.30;;;;;;;16.31;100.00;100280.53;5057082;28;20107;-74
2021/08/02 02:01:41;;;;;;;5.32;1.35;;;;;;;16.57;98.93;100274.47;5037454;28;20036;-74
2021/08/02 02:04:09;;;;;;;7.05;1.63;;;;;;;16.56;99.39;100291.19;5071050;28;20484;-74
2021/08/02 02:06:43;;;;;;;4.32;1.35;;;;;;;16.57;99.34;100287.31;5036485;28;20052;-73
2021/08/02 02:09:14;;;;;;;4.43;1.58;;;;;;;16.54;99.32;100285.38;5075668;28;20081;-73
2021/08/02 02:11:44;;;;;;;6.03;1.25;;;;;;;16.31;99.29;100282.47;5071432;28;20089;-73
2021/08/02 02:14:26;;;;;;;2.35;1.00;;;;;;;16.44;99.16;100280.78;5051048;28;20116;-73
2021/08/02 02:16:55;;;;;;;3.17;1.38;;;;;;;16.32;99.37;100290.22;5047431;28;20616;-73
2021/08/02 02:19:24;;;;;;;5.57;1.35;;;;;;;16.17;99.97;100280.66;5070000;28;20063;-73
2021/08/02 02:21:53;;;;;;;2.13;1.30;;;;;;;16.23;100.00;100285.25;5051082;28;20119;-73
2021/08/02 02:24:20;;;;;;;5.70;1.38;;;;;;;16.38;98.90;100285.09;5068970;28;20481;-72
2021/08/02 02:26:47;;;;;;;3.13;1.35;;;;;;;16.42;98.19;100283.13;5077683;28;20067;-73
2021/08/02 02:29:16;;;;;;;2.83;1.50;;;;;;;16.35;98.72;100281.28;5051950;28;20025;-73
2021/08/02 02:31:46;;;;;;;4.55;1.30;;;;;;;16.18;98.99;100290.34;5051825;28;20174;-73
2021/08/02 02:34:14;;;;;;;5.28;1.45;;;;;;;16.20;99.60;100296.91;5068232;28;20024;-73
2021/08/02 02:36:44;;;;;;;2.58;1.33;;;;;;;16.15;99.82;100288.44;5058980;28;20032;-73
2021/08/02 02:39:11;;;;;;;2.92;1.17;;;;;;;16.15;99.89;100278.34;5069875;28;20029;-73
2021/08/02 02:41:41;;;;;;;4.40;1.50;;;;;;;16.13;100.00;100288.84;5055018;28;20038;-73
2021/08/02 02:44:07;;;;;;;3.50;1.40;;;;;;;16.07;99.97;100287.72;5053214;28;20470;-73
2021/08/02 02:46:33;;;;;;;6.15;1.23;;;;;;;16.06;100.00;100290.84;5052450;28;20056;-72
2021/08/02 02:49:02;;;;;;;6.03;1.42;;;;;;;16.08;99.84;100293.94;5079459;28;20073;-75
2021/08/02 02:51:29;;;;;;;4.13;1.50;;;;;;;16.03;100.00;100300.56;5075973;28;20035;-73
2021/08/02 02:54:01;;;;;;;6.70;1.23;;;;;;;16.08;99.76;100293.94;5082005;28;20028;-73
2021/08/02 02:56:30;;;;;;;4.78;1.17;;;;;;;15.97;100.00;100291.28;5081239;28;20028;-73
2021/08/02 02:58:55;;;;;;;1.80;1.00;;;;;;;16.08;99.95;100296.66;5059468;28;20443;-73
2021/08/02 03:01:27;;;;;;;4.55;1.30;;;;;;;16.02;100.00;100290.88;5086470;28;20068;-73
2021/08/02 03:03:58;;;;;;;6.63;1.50;;;;;;;16.01;99.66;100294.75;5067193;23;20202;-74
2021/08/02 03:06:27;;;;;;;4.90;1.30;;;;;;;15.89;100.00;100292.50;5065747;28;20090;-74
2021/08/02 03:08:54;;;;;;;2.90;1.25;;;;;;;15.93;99.76;100300.66;5054376;28;20520;-74
2021/08/02 03:11:21;;;;;;;7.65;1.75;;;;;;;16.06;99.49;100307.91;5055495;28;20024;-74
2021/08/02 03:13:50;;;;;;;5.55;1.30;;;;;;;16.05;99.66;100321.88;5072135;28;20029;-74
2021/08/02 03:16:17;;;;;;;4.75;1.15;;;;;;;15.96;100.00;100314.19;5049815;28;20400;-74
2021/08/02 03:18:43;;;;;;;10.27;1.67;;;;;;;15.73;100.00;100311.25;5072011;28;20041;-74
2021/08/02 03:21:08;;;;;;;8.48;1.20;;;;;;;15.90;99.94;100315.00;5062534;28;20032;-74
2021/08/02 03:23:41;;;;;;;3.60;1.38;;;;;;;15.91;100.00;100311.13;5067009;28;20048;-74
2021/08/02 03:26:18;;;;;;;3.95;1.52;;;;;;;15.81;100.00;100314.69;5060640;28;20635;-75
2021/08/02 03:28:51;;;;;;;6.30;1.50;;;;;;;15.81;100.00;100310.03;5054243;28;20032;-74
2021/08/02 03:31:21;;;;;;;2.42;1.15;;;;;;;16.03;99.01;100314.13;5071162;28;20041;-74
2021/08/02 03:33:49;;;;;;;7.72;1.50;;;;;;;15.87;99.49;100321.25;5068420;28;20144;-75
2021/08/02 03:36:16;;;;;;;4.07;1.17;;;;;;;15.93;100.00;100314.22;5067088;28;20031;-75
2021/08/02 03:38:45;;;;;;;8.35;1.60;;;;;;;15.81;99.67;100317.41;5054121;28;20044;-75
2021/08/02 03:41:12;;;;;;;3.42;1.40;;;;;;;15.86;99.77;100323.19;5069493;28;20467;-75
2021/08/02 03:43:40;;;;;;;4.30;1.20;;;;;;;15.86;99.73;100319.69;5050877;28;20043;-75
2021/08/02 03:46:06;;;;;;;5.25;1.25;;;;;;;15.88;100.00;100320.06;5067890;28;20070;-75
2021/08/02 03:48:32;;;;;;;7.80;1.55;;;;;;;15.94;99.85;100321.19;5072018;28;20544;-75
2021/08/02 03:50:58;;;;;;;3.65;1.30;;;;;;;16.12;98.65;100321.84;5070425;28;20024;-75
2021/08/02 03:53:24;;;;;;;3.45;1.30;;;;;;;16.09;99.69;100317.97;5072323;28;20523;-75
2021/08/02 03:55:51;;;;;;;4.68;1.58;;;;;;;16.03;99.42;100324.22;5051754;28;20033;-75
2021/08/02 03:58:16;;;;;;;5.30;1.40;;;;;;;15.93;99.74;100325.84;5064135;28;20028;-75
2021/08/02 04:00:43;;;;;;;5.75;1.45;;;;;;;15.68;100.00;100327.19;5047014;28;20029;-75
2021/08/02 04:03:09;;;;;;;3.40;1.50;;;;;;;15.88;100.00;100320.84;5057338;28;20566;-75
2021/08/02 04:05:35;;;;;;;3.38;1.40;;;;;;;15.91;100.00;100320.03;5048456;28;20047;-75
2021/08/02 04:08:00;;;;;;;4.38;1.33;;;;;;;15.79;100.00;100325.97;5068539;28;20078;-75
2021/08/02 04:10:30;;;;;;;3.63;1.17;;;;;;;15.84;100.00;100328.25;5069507;28;20024;-75
2021/08/02 04:12:56;;;;;;;3.40;1.10;;;;;;;15.65;100.00;100336.13;5069333;28;20029;-75
2021/08/02 04:15:22;;;;;;;4.47;1.33;;;;;;;15.77;100.00;100344.59;5069772;28;20431;-75
2021/08/02 04:17:47;;;;;;;4.53;1.27;;;;;;;15.73;100.00;100341.13;5061550;28;20048;-75
2021/08/02 04:20:18;;;;;;;3.95;1.30;;;;;;;15.91;100.00;100349.16;5064970;28;20036;-75
2021/08/02 04:22:46;;;;;;;7.80;1.50;;;;;;;16.06;100.00;100345.94;5043583;28;20039;-75
2021/08/02 04:25:11;;;;;;;4.60;1.30;;;;;;;16.08;99.88;100343.63;5045056;28;20070;-75
2021/08/02 04:27:36;;;;;;;3.92;1.40;;;;;;;16.22;98.48;100338.06;5063789;28;20421;-75
2021/08/02 04:30:02;;;;;;;6.43;1.35;;;;;;;16.20;98.60;100339.66;5062946;28;20071;-75
2021/08/02 04:32:27;;;;;;;4.53;1.35;;;;;;;16.26;98.47;100343.44;5042581;28;20129;-74
2021/08/02 04:34:53;;;;;;;5.20;1.60;;;;;;;16.24;98.47;100343.09;5056726;28;20039;-74
2021/08/02 04:37:18;;;;;;;3.55;1.40;;;;;;;16.01;98.98;100342.88;5046797;28;20420;-74
2021/08/02 04:39:44;;;;;;;6.10;1.42;;;;;;;16.13;98.52;100335.03;5043040;28;20094;-74
2021/08/02 04:42:10;;;;;;;5.20;1.30;;;;;;;16.13;98.61;100340.47;5051830;28;20082;-74
2021/08/02 04:44:35;;;;;;;6.10;1.30;;;;;;;16.31;97.95;100355.84;5049694;28;20024;-74
2021/08/02 04:47:01;;;;;;;4.57;1.50;;;;;;;16.36;97.96;100353.47;5071581;28;20446;-74
2021/08/02 04:49:26;;;;;;;3.80;1.20;;;;;;;16.35;98.42;100351.94;5063619;28;20028;-74
2021/08/02 04:51:51;;;;;;;4.28;2.42;;;;;;;16.16;99.21;100347.78;5050559;28;20064;-74
2021/08/02 04:54:17;;;;;;;5.00;1.33;;;;;;;16.25;98.69;100352.78;5070338;28;20029;-74
2021/08/02 04:56:43;;;;;;;6.82;1.48;;;;;;;16.32;99.51;100352.72;5061199;28;20098;-74
2021/08/02 04:59:08;;;;;;;10.65;1.90;;;;;;;16.37;98.95;100352.31;5065261;28;20071;-74
2021/08/02 05:01:33;;;;;;;4.40;1.30;;;;;;;16.35;99.70;100362.81;5060076;28;20051;-74
2021/08/02 05:03:59;;;;;;;4.70;1.30;;;;;;;16.31;99.31;100351.19;5067304;28;20068;-74
2021/08/02 05:06:24;;;;;;;2.67;1.42;;;;;;;16.50;98.73;100358.06;5046631;28;20119;-74
2021/08/02 05:08:50;;;;;;;6.93;1.73;;;;;;;16.30;99.07;100351.59;5066906;28;20029;-74
2021/08/02 05:11:16;;;;;;;3.42;1.50;;;;;;;16.25;99.48;100364.44;5067064;28;20413;-74
2021/08/02 05:13:43;;;;;;;3.72;1.40;;;;;;;16.30;99.95;100365.19;5049874;28;20040;-74
2021/08/02 05:16:08;;;;;;;6.70;1.40;;;;;;;16.35;100.00;100368.25;5067814;28;20039;-74
2021/08/02 05:18:34;;;;;;;2.75;1.40;;;;;;;16.51;99.86;100373.19;5050648;28;20040;-75
2021/08/02 05:20:59;;;;;;;4.90;1.33;;;;;;;16.47;98.85;100367.78;5026573;28;20032;-74
2021/08/02 05:23:25;;;;;;;7.18;1.50;;;;;;;16.62;98.51;100382.03;5035698;28;20510;-75
2021/08/02 05:25:51;;;;;;;7.43;1.70;;;;;;;16.67;98.42;100381.59;5039632;28;20534;-75
2021/08/02 05:28:18;;;;;;;6.90;1.40;;;;;;;16.76;98.08;100387.34;5068347;28;20472;-75
2021/08/02 05:30:44;;;;;;;7.22;1.70;;;;;;;16.73;98.05;100374.53;5064140;28;20522;-74
2021/08/02 05:33:09;;;;;;;6.18;1.75;;;;;;;16.84;98.10;100381.44;5068471;28;20103;-74
2021/08/02 05:35:35;;;;;;;6.10;1.60;;;;;;;16.88;97.21;100379.44;5047324;28;20828;-74
2021/08/02 05:38:00;;;;;;;9.20;1.60;;;;;;;16.69;97.06;100382.75;5048086;28;20493;-74
2021/08/02 05:40:26;;;;;;;5.97;1.48;;;;;;;16.87;96.38;100380.63;5064644;28;20028;-74
2021/08/02 05:42:51;;;;;;;4.18;1.30;;;;;;;16.66;96.77;100374.63;5045936;28;20082;-74
2021/08/02 05:45:17;;;;;;;3.50;1.27;;;;;;;16.57;97.86;100377.03;5063209;28;20395;-74
2021/08/02 05:47:43;;;;;;;5.32;1.55;;;;;;;16.27;98.23;100372.97;5065875;28;20155;-74
2021/08/02 05:50:09;;;;;;;8.65;1.52;;;;;;;16.59;97.42;100375.44;5046027;28;20104;-74
2021/08/02 05:52:34;;;;;;;3.47;1.42;;;;;;;16.53;98.06;100382.47;5066236;28;20033;-74
2021/08/02 05:55:00;;;;;;;6.38;1.58;;;;;;;16.85;96.35;100382.22;5043727;28;20115;-74
2021/08/02 05:57:25;;;;;;;5.40;1.30;;;;;;;16.86;95.99;100379.06;5060925;28;20459;-74
2021/08/02 05:59:51;;;;;;;8.20;1.50;;;;;;;16.64;97.08;100388.63;5066479;28;20155;-74
2021/08/02 06:02:17;;;;;;;5.60;1.30;;;;;;;16.63;97.66;100380.84;5061629;28;20033;-74
2021/08/02 06:04:42;;;;;;;1.83;1.30;;;;;;;16.81;97.17;100384.19;5046352;28;20074;-74
2021/08/02 06:07:08;;;;;;;5.60;1.58;;;;;;;16.97;96.91;100382.47;5045441;28;20131;-75
2021/08/02 06:09:33;;;;;;;5.38;1.60;;;;;;;16.78;98.07;100385.00;5047998;28;20032;-74
2021/08/02 06:12:00;;;;;;;5.13;1.50;;;;;;;16.85;97.50;100382.22;5041894;28;20439;-74
2021/08/02 06:14:26;;;;;;;4.78;1.60;;;;;;;16.95;97.75;100378.63;5066886;28;20024;-75
2021/08/02 06:16:51;;;;;;;5.38;1.60;;;;;;;17.22;97.04;100373.25;5068243;28;20036;-75
2021/08/02 06:19:17;;;;;;;3.42;1.25;;;;;;;17.48;95.73;100380.75;5066800;28;20147;-75
2021/08/02 06:21:42;;;;;;;6.28;1.77;;;;;;;17.61;95.25;100385.28;5059319;28;20028;-75
2021/08/02 06:24:08;;;;;;;7.18;1.50;;;;;;;17.69;93.72;100394.13;5030925;28;20485;-74
2021/08/02 06:26:34;;;;;;;7.38;1.45;;;;;;;17.29;95.40;100395.72;5048164;28;20036;-75
2021/08/02 06:28:59;;;;;;;5.22;1.40;;;;;;;17.18;95.85;100386.91;5068577;28;20032;-75
2021/08/02 06:31:25;;;;;;;7.95;1.75;;;;;;;17.55;94.27;100392.34;5073811;28;20029;-74
2021/08/02 06:33:51;;;;;;;5.28;1.48;;;;;;;17.47;94.65;100403.69;5071344;28;20032;-74
2021/08/02 06:36:21;;;;;;;4.90;1.58;;;;;;;17.29;95.22;100390.28;5069802;28;20060;-75
2021/08/02 06:38:49;;;;;;;5.70;1.38;;;;;;;17.45;94.38;100398.66;5058061;28;20032;-75
2021/08/02 06:41:15;;;;;;;5.22;1.40;;;;;;;17.13;93.04;100401.72;5032222;28;20028;-75
2021/08/02 06:43:42;;;;;;;3.58;1.50;;;;;;;17.30;94.21;100399.22;5029771;28;20037;-75
2021/08/02 06:46:08;;;;;;;4.30;1.30;;;;;;;17.38;93.08;100400.69;5054735;28;20115;-75
2021/08/02 06:48:35;;;;;;;5.28;1.30;;;;;;;17.29;92.76;100398.44;5066909;28;20626;-75
2021/08/02 06:51:01;;;;;;;3.00;1.30;;;;;;;17.54;92.39;100407.13;5064631;28;20035;-75
2021/08/02 06:53:26;;;;;;;3.85;1.30;;;;;;;17.82;90.94;100404.06;5072072;28;20028;-75
2021/08/02 06:55:52;;;;;;;5.43;1.13;;;;;;;17.89;89.26;100419.53;5068772;28;20059;-75
2021/08/02 06:58:18;;;;;;;11.95;1.33;;;;;;;18.11;88.82;100411.84;5066695;28;20488;-75
2021/08/02 07:00:43;;;;;;;3.20;1.23;;;;;;;17.86;88.94;100423.88;5071974;28;20068;-74
2021/08/02 07:03:09;;;;;;;4.32;1.13;;;;;;;17.89;89.23;100423.03;5048336;28;20203;-74
2021/08/02 07:05:35;;;;;;;5.18;1.00;;;;;;;17.97;89.16;100424.50;5061366;28;20036;-74
2021/08/02 07:08:04;;;;;;;2.88;1.08;;;;;;;17.41;89.86;100421.66;5069017;28;20042;-75
2021/08/02 07:10:30;;;;;;;5.25;1.10;;;;;;;17.95;89.58;100420.63;5046444;28;20032;-75
2021/08/02 07:12:55;;;;;;;2.70;1.10;;;;;;;18.15;89.39;100432.41;5048626;28;20106;-75
2021/08/02 07:15:21;;;;;;;6.53;1.20;;;;;;;18.18;90.45;100425.34;5051255;28;20059;-75
2021/08/02 07:17:46;;;;;;;1.63;0.98;;;;;;;18.15;89.72;100426.97;5068800;28;20032;-75
2021/08/02 07:20:12;;;;;;;5.75;1.17;;;;;;;18.20;90.66;100429.22;5051840;28;20043;-74
2021/08/02 07:22:38;;;;;;;2.70;0.93;;;;;;;18.24;89.82;100435.41;5066736;28;20036;-74
2021/08/02 07:25:04;;;;;;;5.38;1.70;;;;;;;18.52;89.68;100428.78;5065355;28;20404;-74
2021/08/02 07:27:29;;;;;;;8.25;1.10;;;;;;;18.68;88.62;100440.59;5068539;28;20082;-75
2021/08/02 07:29:55;;;;;;;7.28;1.80;;;;;;;18.64;88.42;100436.38;5065241;28;20037;-74
2021/08/02 07:32:20;;;;;;;8.95;1.30;;;;;;;18.74;88.52;100440.88;5070875;28;20115;-74
2021/08/02 07:34:46;;;;;;;7.15;1.80;;;;;;;18.65;88.71;100437.91;5046903;28;20501;-74
2021/08/02 07:37:12;;;;;;;6.40;1.50;;;;;;;18.63;90.44;100451.19;5062813;28;20361;-74
2021/08/02 07:39:37;;;;;;;17.15;1.75;;;;;;;18.76;88.25;100435.78;5067777;28;20036;-74
2021/08/02 07:42:03;;;;;;;5.20;1.10;;;;;;;18.72;87.59;100449.47;5070645;28;20110;-74
2021/08/02 07:44:29;;;;;;;12.98;2.35;;;;;;;19.04;87.55;100442.72;5069547;28;20094;-74
2021/08/02 07:46:55;;;;;;;10.82;1.77;;;;;;;19.20;85.94;100445.56;5047078;28;20119;-75
2021/08/02 07:49:20;;;;;;;5.50;1.27;;;;;;;19.39;86.11;100436.63;5068125;28;20037;-74
2021/08/02 07:51:46;;;;;;;6.90;1.42;;;;;;;19.49;84.68;100436.41;5050262;28;20485;-74
2021/08/02 07:54:11;;;;;;;3.58;1.25;;;;;;;19.41;84.45;100440.50;5068098;28;20074;-75
2021/08/02 07:56:38;;;;;;;11.00;1.42;;;;;;;19.28;85.35;100442.25;5065034;28;20124;-74
2021/08/02 07:59:03;;;;;;;2.85;1.30;;;;;;;19.04;87.47;100440.00;5069432;28;20040;-75
2021/08/02 08:01:29;;;;;;;5.32;1.23;;;;;;;18.77;90.11;100457.22;5066544;28;20423;-74
2021/08/02 08:03:54;;;;;;;3.70;1.40;;;;;;;18.22;95.47;100465.03;5070152;28;20849;-74
2021/08/02 08:06:20;;;;;;;3.65;1.70;;;;;;;18.24;96.79;100470.06;5066915;28;20037;-74
2021/08/02 08:08:46;;;;;;;5.13;1.50;;;;;;;18.21;97.35;100462.72;5053858;28;20060;-74
2021/08/02 08:11:11;;;;;;;1.80;1.10;;;;;;;17.60;99.60;100461.94;5071890;28;20029;-74
2021/08/02 08:13:37;;;;;;;2.30;1.10;;;;;;;17.61;98.55;100452.59;5059457;28;20151;-74
2021/08/02 08:16:04;;;;;;;2.83;0.95;;;;;;;17.91;98.66;100452.59;5071443;28;20036;-74
2021/08/02 08:18:30;;;;;;;4.60;1.33;;;;;;;17.99;98.68;100446.66;5071182;28;20016;-74
2021/08/02 08:20:59;;;;;;;2.22;1.13;;;;;;;18.24;96.08;100446.31;5052807;28;20040;-74
2021/08/02 08:23:25;;;;;;;2.67;1.10;;;;;;;18.30;95.62;100444.66;5071227;28;20446;-74
2021/08/02 08:25:50;;;;;;;3.88;1.10;;;;;;;18.22;98.30;100450.63;5064702;28;20032;-74
2021/08/02 08:28:17;;;;;;;5.20;1.48;;;;;;;18.22;96.76;100454.13;5066169;28;20049;-74
2021/08/02 08:30:43;;;;;;;3.83;1.20;;;;;;;18.75;93.19;100454.13;5065381;28;20050;-74
2021/08/02 08:33:09;;;;;;;5.00;1.20;;;;;;;19.14;92.93;100456.19;5069926;28;20058;-74
2021/08/02 08:35:37;;;;;;;3.95;1.30;;;;;;;19.24;91.72;100451.72;5067048;28;20714;-74
2021/08/02 08:38:04;;;;;;;4.80;1.48;;;;;;;19.23;90.92;100455.63;5071528;28;20033;-74
2021/08/02 08:40:30;;;;;;;3.78;0.85;;;;;;;19.23;90.07;100448.22;5048778;28;20043;-74
2021/08/02 08:42:56;;;;;;;2.80;1.20;;;;;;;19.17;89.76;100447.16;5037636;28;20039;-75
2021/08/02 08:45:21;;;;;;;3.33;1.20;;;;;;;19.32;89.35;100445.72;5063785;28;20031;-74
2021/08/02 08:47:47;;;;;;;2.75;1.20;;;;;;;19.55;88.05;100451.13;5065072;28;20548;-74
2021/08/02 08:50:12;;;;;;;12.30;1.38;;;;;;;19.60;86.54;100449.88;5068092;28;20520;-74
2021/08/02 08:52:38;;;;;;;2.50;1.00;;;;;;;19.45;85.93;100454.09;5062274;28;20528;-74
2021/08/02 08:55:09;;;;;;;5.68;1.15;;;;;;;19.06;87.06;100454.78;5043988;28;20039;-74
2021/08/02 08:57:35;;;;;;;3.38;1.00;;;;;;;18.84;85.60;100462.53;5066577;28;20028;-74
2021/08/02 09:00:01;;;;;;;3.22;0.95;;;;;;;19.01;85.34;100459.94;5062797;28;20032;-74
2021/08/02 09:05:02;;;;;;;9.30;1.45;;;;;;;19.23;82.70;100466.56;5012783;28;20108;-73
2021/08/02 09:07:39;;;;;;;5.78;1.40;;;;;;;19.15;81.69;100474.09;5014450;28;20561;-73
2021/08/02 09:10:10;;;;;;;2.92;0.75;;;;;;;19.41;80.51;100472.50;5026788;28;20054;-72
2021/08/02 09:12:36;;;;;;;;;;;;;;;19.39;80.75;100472.94;5025208;28;20037;-75
2021/08/02 09:15:06;;;;;;;1.88;0.90;;;;;;;19.80;80.28;100470.53;5005310;28;19971;-75
2021/08/02 09:17:33;;;;;;;4.13;1.05;;;;;;;20.02;80.52;100467.34;5019985;28;20043;-75
2021/08/02 09:20:06;;;;;;;3.53;0.80;;;;;;;19.85;79.18;100466.56;5021370;28;20033;-75
2021/08/02 09:22:36;;;;;;;4.13;1.10;;;;;;;20.27;79.91;100464.88;5025718;28;20112;-75
2021/08/02 09:25:08;;;;;;;3.70;0.90;;;;;;;19.98;79.56;100466.66;5025616;28;20031;-75
2021/08/02 09:27:34;;;;;;;2.83;0.80;;;;;;;20.20;79.88;100471.31;5010514;28;20137;-75
2021/08/02 09:30:14;;;;;;;2.17;0.98;;;;;;;20.40;78.28;100472.00;5016532;28;20087;-75
2021/08/02 09:32:49;;;;;;;3.63;1.20;;;;;;;20.70;76.73;100468.19;5016960;28;20512;-75
2021/08/02 09:35:38;;;;;;;2.50;1.08;;;;;;;20.97;77.10;100476.91;5013095;28;20038;-75
2021/08/02 09:38:06;;;;;;;2.55;1.10;;;;;;;21.04;74.55;100471.25;5011945;28;20108;-75
2021/08/02 09:40:49;;;;;;;4.07;1.45;;;;;;;21.21;75.33;100470.06;5017210;28;20053;-75
2021/08/02 09:43:23;;;;;;;5.50;1.00;;;;;;;21.36;74.39;100475.91;5016515;28;20033;-75
2021/08/02 09:45:50;;;;;;;3.92;0.80;;;;;;;21.45;72.43;100474.09;5012499;28;20025;-75
2021/08/02 09:48:18;;;;;;;5.15;0.90;;;;;;;21.94;70.13;100471.97;5014473;28;20080;-75
2021/08/02 09:50:46;;;;;;;4.45;1.08;;;;;;;22.26;69.12;100471.00;5018931;28;20371;-75
2021/08/02 09:53:19;;;;;;;5.93;0.95;;;;;;;22.52;67.22;100464.31;5020857;28;20025;-75
2021/08/02 09:55:46;;;;;;;2.83;0.90;;;;;;;22.61;65.59;100463.69;5009800;28;20033;-75
2021/08/02 09:58:18;;;;;;;4.70;1.00;;;;;;;22.72;65.76;100453.88;4996537;28;20042;-73
2021/08/02 10:00:44;;;;;;;4.38;0.80;;;;;;;22.80;65.95;100460.66;5019985;28;20121;-72
2021/08/02 10:03:09;;;;;;;4.38;1.10;;;;;;;22.37;66.64;100454.97;5027221;28;20148;-73
2021/08/02 10:05:37;;;;;;;8.82;1.10;;;;;;;22.18;66.92;100466.94;5017512;28;20042;-72
2021/08/02 10:08:03;;;;;;;4.60;0.90;;;;;;;21.96;67.21;100458.56;5009919;28;20489;-73
2021/08/02 10:10:29;;;;;;;4.47;1.17;;;;;;;22.18;67.81;100458.72;5019256;28;20037;-73
2021/08/02 10:12:55;;;;;;;3.78;0.90;;;;;;;22.42;66.72;100457.16;5011314;28;20103;-73
2021/08/02 10:15:30;;;;;;;4.05;0.90;;;;;;;22.45;67.72;100459.78;5022093;28;20030;-73
2021/08/02 10:17:58;;;;;;;4.50;0.90;;;;;;;22.29;68.68;100459.94;5027738;28;20041;-73
2021/08/02 10:20:25;;;;;;;2.33;0.85;;;;;;;22.34;68.02;100459.38;5019028;28;20037;-73
2021/08/02 10:22:51;;;;;;;3.35;0.85;;;;;;;22.28;68.13;100458.38;5027996;28;20088;-73
2021/08/02 10:25:17;;;;;;;5.72;1.05;;;;;;;22.41;66.76;100461.88;5010263;28;20025;-75
2021/08/02 10:27:43;;;;;;;3.63;1.23;;;;;;;22.69;64.04;100449.25;5022571;28;20091;-75
2021/08/02 10:30:25;;;;;;;4.03;0.80;;;;;;;22.69;62.71;100462.22;5018761;28;20084;-74
2021/08/02 10:32:56;;;;;;;1.70;0.65;;;;;;;22.23;62.56;100463.66;5002424;28;20072;-75
2021/08/02 10:35:41;;;;;;;2.88;1.00;;;;;;;22.47;63.45;100469.59;5009721;28;20112;-75
2021/08/02 10:38:09;;;;;;;4.03;1.02;;;;;;;22.48;61.51;100474.63;5016661;28;20497;-72
2021/08/02 10:40:57;;;;;;;1.77;0.90;;;;;;;22.51;64.49;100470.25;5027553;28;20079;-72
2021/08/02 10:43:37;;;;;;;3.35;0.88;;;;;;;22.45;64.65;100479.00;5022026;28;20183;-73
2021/08/02 10:46:19;;;;;;;4.53;1.00;;;;;;;22.25;62.14;100477.69;5005260;28;20037;-72
2021/08/02 10:48:45;;;;;;;2.95;0.80;;;;;;;22.41;61.14;100469.38;5022779;28;20033;-73
2021/08/02 10:51:16;;;;;;;4.57;1.20;;;;;;;22.66;58.06;100474.88;5005351;28;20029;-72
2021/08/02 10:53:41;;;;;;;5.45;1.05;;;;;;;22.80;56.75;100471.63;5022278;28;20042;-73
2021/08/02 10:56:07;;;;;;;3.28;1.30;;;;;;;22.97;56.82;100473.06;5005436;28;20148;-73
2021/08/02 10:58:39;;;;;;;4.35;1.15;;;;;;;23.08;55.60;100478.19;5021709;28;20038;-73
2021/08/02 11:01:11;;;;;;;9.50;1.13;;;;;;;23.34;55.08;100471.44;4994598;28;20048;-73
2021/08/02 11:03:39;;;;;;;7.78;0.88;;;;;;;23.69;55.65;100483.91;5021935;28;20038;-73
2021/08/02 11:06:16;;;;;;;1.73;0.93;;;;;;;23.57;55.20;100482.00;5012268;28;20272;-73
2021/08/02 11:08:46;;;;;;;3.35;1.02;;;;;;;23.45;56.09;100498.53;5003642;28;20068;-74
2021/08/02 11:11:29;;;;;;;3.47;0.90;;;;;;;23.26;55.57;100492.88;5021206;28;20029;-73
2021/08/02 11:14:13;;;;;;;2.75;0.95;;;;;;;22.65;58.78;100500.03;5029262;28;20108;-73
2021/08/02 11:16:47;;;;;;;3.95;0.80;;;;;;;22.25;62.98;100508.66;5015431;28;20044;-73
2021/08/02 11:19:28;;;;;;;3.05;1.13;;;;;;;22.08;64.91;100523.69;5028161;28;20037;-73
2021/08/02 11:21:59;;;;;;;1.80;0.65;;;;;;;22.20;64.38;100531.13;5018711;28;20397;-74
2021/08/02 11:24:26;;;;;;;5.35;1.05;;;;;;;22.02;65.03;100532.88;5018109;28;20607;-75
2021/08/02 11:26:56;;;;;;;1.90;0.80;;;;;;;21.54;65.83;100542.00;4999198;28;20056;-76
2021/08/02 11:29:23;;;;;;;3.50;1.00;;;;;;;21.40;66.98;100542.38;5013000;28;20092;-76
2021/08/02 11:31:54;;;;;;;3.30;1.30;;;;;;;21.04;71.20;100550.69;5014683;28;20038;-76